sensor_id;sensor_type;location;lat;lon;timestamp;P1;durP1;ratioP1;P2;durP2;ratioP2
8464;SDS011;72380;52.680;13.606;2023-09-07T00:01:34;3.43;;;2.70;;
8464;SDS011;72380;52.680;13.606;2023-09-07T00:04:02;3.23;;;2.67;;
8464;SDS011;72380;52.680;13.606;2023-09-07T00:06:30;5.50;;;3.17;;
8464;SDS011;72380;52.680;13.606;2023-09-07T00:08:57;4.10;;;3.63;;
8464;SDS011;72380;52.680;13.606;2023-09-07T00:11:24;5.07;;;2.93;;
8464;SDS011;72380;52.680;13.606;2023-09-07T00:13:52;3.97;;;2.80;;
8464;SDS011;72380;52.680;13.606;2023-09-07T00:16:20;4.07;;;2.80;;
8464;SDS011;72380;52.680;13.606;2023-09-07T00:18:47;3.57;;;3.10;;
8464;SDS011;72380;52.680;13.606;2023-09-07T00:21:15;2.97;;;2.43;;
8464;SDS011;72380;52.680;13.606;2023-09-07T00:23:42;4.07;;;3.13;;
8464;SDS011;72380;52.680;13.606;2023-09-07T00:26:09;4.90;;;3.13;;
8464;SDS011;72380;52.680;13.606;2023-09-07T00:28:37;3.20;;;2.90;;
8464;SDS011;72380;52.680;13.606;2023-09-07T00:31:05;3.47;;;3.00;;
8464;SDS011;72380;52.680;13.606;2023-09-07T00:33:33;4.23;;;2.50;;
8464;SDS011;72380;52.680;13.606;2023-09-07T00:36:01;4.00;;;2.90;;
8464;SDS011;72380;52.680;13.606;2023-09-07T00:38:28;8.97;;;3.20;;
8464;SDS011;72380;52.680;13.606;2023-09-07T00:40:55;3.57;;;2.70;;
8464;SDS011;72380;52.680;13.606;2023-09-07T00:43:23;4.50;;;3.00;;
8464;SDS011;72380;52.680;13.606;2023-09-07T00:45:50;11.87;;;3.47;;
8464;SDS011;72380;52.680;13.606;2023-09-07T00:48:17;3.13;;;2.67;;
8464;SDS011;72380;52.680;13.606;2023-09-07T00:50:47;4.33;;;2.90;;
8464;SDS011;72380;52.680;13.606;2023-09-07T00:53:14;5.20;;;3.57;;
8464;SDS011;72380;52.680;13.606;2023-09-07T00:55:42;4.70;;;2.93;;
8464;SDS011;72380;52.680;13.606;2023-09-07T00:58:09;4.17;;;2.63;;
8464;SDS011;72380;52.680;13.606;2023-09-07T01:00:37;4.20;;;2.53;;
8464;SDS011;72380;52.680;13.606;2023-09-07T01:03:07;3.50;;;2.40;;
8464;SDS011;72380;52.680;13.606;2023-09-07T01:05:43;3.70;;;2.67;;
8464;SDS011;72380;52.680;13.606;2023-09-07T01:08:17;4.60;;;2.63;;
8464;SDS011;72380;52.680;13.606;2023-09-07T01:10:46;4.43;;;2.87;;
8464;SDS011;72380;52.680;13.606;2023-09-07T01:13:13;3.37;;;2.77;;
8464;SDS011;72380;52.680;13.606;2023-09-07T01:15:41;4.40;;;2.97;;
8464;SDS011;72380;52.680;13.606;2023-09-07T01:18:12;3.90;;;3.00;;
8464;SDS011;72380;52.680;13.606;2023-09-07T01:20:40;4.63;;;3.07;;
8464;SDS011;72380;52.680;13.606;2023-09-07T01:23:09;2.40;;;2.20;;
8464;SDS011;72380;52.680;13.606;2023-09-07T01:25:38;3.47;;;2.77;;
8464;SDS011;72380;52.680;13.606;2023-09-07T01:28:06;5.77;;;2.97;;
8464;SDS011;72380;52.680;13.606;2023-09-07T01:30:34;4.90;;;2.70;;
8464;SDS011;72380;52.680;13.606;2023-09-07T01:33:02;3.30;;;2.10;;
8464;SDS011;72380;52.680;13.606;2023-09-07T01:35:32;3.37;;;3.07;;
8464;SDS011;72380;52.680;13.606;2023-09-07T01:38:00;2.50;;;2.20;;
8464;SDS011;72380;52.680;13.606;2023-09-07T01:40:29;3.07;;;2.50;;
8464;SDS011;72380;52.680;13.606;2023-09-07T01:42:56;3.93;;;2.97;;
8464;SDS011;72380;52.680;13.606;2023-09-07T01:45:24;3.80;;;2.73;;
8464;SDS011;72380;52.680;13.606;2023-09-07T01:47:51;5.00;;;3.10;;
8464;SDS011;72380;52.680;13.606;2023-09-07T01:50:18;3.33;;;2.40;;
8464;SDS011;72380;52.680;13.606;2023-09-07T01:52:46;4.70;;;2.57;;
8464;SDS011;72380;52.680;13.606;2023-09-07T01:55:14;6.53;;;2.50;;
8464;SDS011;72380;52.680;13.606;2023-09-07T01:57:43;2.90;;;2.60;;
8464;SDS011;72380;52.680;13.606;2023-09-07T02:00:11;3.63;;;2.70;;
8464;SDS011;72380;52.680;13.606;2023-09-07T02:02:38;3.77;;;2.60;;
8464;SDS011;72380;52.680;13.606;2023-09-07T02:05:06;7.13;;;3.40;;
8464;SDS011;72380;52.680;13.606;2023-09-07T02:07:34;5.10;;;3.43;;
8464;SDS011;72380;52.680;13.606;2023-09-07T02:10:02;7.37;;;2.97;;
8464;SDS011;72380;52.680;13.606;2023-09-07T02:12:29;5.97;;;2.90;;
8464;SDS011;72380;52.680;13.606;2023-09-07T02:14:59;3.63;;;2.70;;
8464;SDS011;72380;52.680;13.606;2023-09-07T02:17:26;3.43;;;2.40;;
8464;SDS011;72380;52.680;13.606;2023-09-07T02:19:53;5.27;;;3.00;;
8464;SDS011;72380;52.680;13.606;2023-09-07T02:22:21;3.13;;;2.80;;
8464;SDS011;72380;52.680;13.606;2023-09-07T02:24:48;3.73;;;2.63;;
8464;SDS011;72380;52.680;13.606;2023-09-07T02:27:15;3.90;;;2.80;;
8464;SDS011;72380;52.680;13.606;2023-09-07T02:29:43;3.67;;;2.67;;
8464;SDS011;72380;52.680;13.606;2023-09-07T02:32:11;4.23;;;2.70;;
8464;SDS011;72380;52.680;13.606;2023-09-07T02:34:39;6.07;;;3.17;;
8464;SDS011;72380;52.680;13.606;2023-09-07T02:37:07;3.70;;;2.60;;
8464;SDS011;72380;52.680;13.606;2023-09-07T02:39:34;4.77;;;3.33;;
8464;SDS011;72380;52.680;13.606;2023-09-07T02:42:02;4.17;;;2.80;;
8464;SDS011;72380;52.680;13.606;2023-09-07T02:44:29;3.57;;;2.70;;
8464;SDS011;72380;52.680;13.606;2023-09-07T02:46:56;3.87;;;2.80;;
8464;SDS011;72380;52.680;13.606;2023-09-07T02:49:25;4.00;;;2.73;;
8464;SDS011;72380;52.680;13.606;2023-09-07T02:51:52;2.47;;;2.27;;
8464;SDS011;72380;52.680;13.606;2023-09-07T02:54:20;4.47;;;2.50;;
8464;SDS011;72380;52.680;13.606;2023-09-07T02:56:47;5.93;;;3.00;;
8464;SDS011;72380;52.680;13.606;2023-09-07T02:59:14;4.27;;;3.10;;
8464;SDS011;72380;52.680;13.606;2023-09-07T03:01:41;3.40;;;2.73;;
8464;SDS011;72380;52.680;13.606;2023-09-07T03:04:13;3.03;;;2.73;;
8464;SDS011;72380;52.680;13.606;2023-09-07T03:06:42;5.90;;;2.77;;
8464;SDS011;72380;52.680;13.606;2023-09-07T03:09:09;3.10;;;2.80;;
8464;SDS011;72380;52.680;13.606;2023-09-07T03:11:37;3.23;;;2.57;;
8464;SDS011;72380;52.680;13.606;2023-09-07T03:14:04;4.00;;;3.07;;
8464;SDS011;72380;52.680;13.606;2023-09-07T03:16:32;2.93;;;2.10;;
8464;SDS011;72380;52.680;13.606;2023-09-07T03:19:00;3.93;;;2.47;;
8464;SDS011;72380;52.680;13.606;2023-09-07T03:21:28;4.00;;;3.23;;
8464;SDS011;72380;52.680;13.606;2023-09-07T03:23:57;8.33;;;2.60;;
8464;SDS011;72380;52.680;13.606;2023-09-07T03:26:24;2.57;;;2.23;;
8464;SDS011;72380;52.680;13.606;2023-09-07T03:28:51;3.43;;;2.50;;
8464;SDS011;72380;52.680;13.606;2023-09-07T03:31:18;3.07;;;2.73;;
8464;SDS011;72380;52.680;13.606;2023-09-07T03:33:46;7.23;;;4.10;;
8464;SDS011;72380;52.680;13.606;2023-09-07T03:36:13;5.63;;;3.00;;
8464;SDS011;72380;52.680;13.606;2023-09-07T03:38:40;5.00;;;3.50;;
8464;SDS011;72380;52.680;13.606;2023-09-07T03:41:09;7.10;;;2.57;;
8464;SDS011;72380;52.680;13.606;2023-09-07T03:43:37;4.57;;;3.20;;
8464;SDS011;72380;52.680;13.606;2023-09-07T03:46:05;2.93;;;2.63;;
8464;SDS011;72380;52.680;13.606;2023-09-07T03:48:32;3.47;;;2.40;;
8464;SDS011;72380;52.680;13.606;2023-09-07T03:51:00;3.77;;;2.80;;
8464;SDS011;72380;52.680;13.606;2023-09-07T03:53:27;4.37;;;2.60;;
8464;SDS011;72380;52.680;13.606;2023-09-07T03:55:54;5.03;;;2.70;;
8464;SDS011;72380;52.680;13.606;2023-09-07T03:58:23;5.27;;;3.23;;
8464;SDS011;72380;52.680;13.606;2023-09-07T04:00:50;3.30;;;2.20;;
8464;SDS011;72380;52.680;13.606;2023-09-07T04:03:17;3.70;;;2.90;;
8464;SDS011;72380;52.680;13.606;2023-09-07T04:05:45;6.50;;;2.40;;
8464;SDS011;72380;52.680;13.606;2023-09-07T04:08:12;4.20;;;2.93;;
8464;SDS011;72380;52.680;13.606;2023-09-07T04:10:39;6.17;;;3.60;;
8464;SDS011;72380;52.680;13.606;2023-09-07T04:13:06;3.53;;;3.13;;
8464;SDS011;72380;52.680;13.606;2023-09-07T04:15:40;3.50;;;3.00;;
8464;SDS011;72380;52.680;13.606;2023-09-07T04:18:09;5.73;;;2.83;;
8464;SDS011;72380;52.680;13.606;2023-09-07T04:20:37;3.23;;;2.93;;
8464;SDS011;72380;52.680;13.606;2023-09-07T04:23:05;3.57;;;2.63;;
8464;SDS011;72380;52.680;13.606;2023-09-07T04:25:32;3.30;;;2.60;;
8464;SDS011;72380;52.680;13.606;2023-09-07T04:27:59;3.97;;;2.57;;
8464;SDS011;72380;52.680;13.606;2023-09-07T04:30:27;6.13;;;3.17;;
8464;SDS011;72380;52.680;13.606;2023-09-07T04:32:55;3.67;;;2.47;;
8464;SDS011;72380;52.680;13.606;2023-09-07T04:35:26;5.83;;;2.53;;
8464;SDS011;72380;52.680;13.606;2023-09-07T04:37:53;4.67;;;3.10;;
8464;SDS011;72380;52.680;13.606;2023-09-07T04:40:21;4.70;;;3.80;;
8464;SDS011;72380;52.680;13.606;2023-09-07T04:42:48;4.77;;;3.37;;
8464;SDS011;72380;52.680;13.606;2023-09-07T04:45:16;6.90;;;3.23;;
8464;SDS011;72380;52.680;13.606;2023-09-07T04:47:43;4.93;;;2.97;;
8464;SDS011;72380;52.680;13.606;2023-09-07T04:50:12;5.17;;;3.53;;
8464;SDS011;72380;52.680;13.606;2023-09-07T04:52:40;6.60;;;5.20;;
8464;SDS011;72380;52.680;13.606;2023-09-07T04:55:07;4.37;;;3.10;;
8464;SDS011;72380;52.680;13.606;2023-09-07T04:57:35;7.10;;;3.73;;
8464;SDS011;72380;52.680;13.606;2023-09-07T05:00:03;8.70;;;3.70;;
8464;SDS011;72380;52.680;13.606;2023-09-07T05:02:31;5.30;;;2.87;;
8464;SDS011;72380;52.680;13.606;2023-09-07T05:05:04;3.33;;;2.50;;
8464;SDS011;72380;52.680;13.606;2023-09-07T05:07:32;3.73;;;3.33;;
8464;SDS011;72380;52.680;13.606;2023-09-07T05:10:00;8.33;;;5.10;;
8464;SDS011;72380;52.680;13.606;2023-09-07T05:12:28;5.03;;;3.30;;
8464;SDS011;72380;52.680;13.606;2023-09-07T05:14:55;8.80;;;2.80;;
8464;SDS011;72380;52.680;13.606;2023-09-07T05:17:22;4.17;;;2.83;;
8464;SDS011;72380;52.680;13.606;2023-09-07T05:19:50;5.80;;;2.77;;
8464;SDS011;72380;52.680;13.606;2023-09-07T05:22:17;4.07;;;3.13;;
8464;SDS011;72380;52.680;13.606;2023-09-07T05:24:46;6.30;;;3.03;;
8464;SDS011;72380;52.680;13.606;2023-09-07T05:27:13;3.80;;;2.90;;
8464;SDS011;72380;52.680;13.606;2023-09-07T05:29:41;3.73;;;2.90;;
8464;SDS011;72380;52.680;13.606;2023-09-07T05:32:09;3.60;;;2.90;;
8464;SDS011;72380;52.680;13.606;2023-09-07T05:34:36;4.70;;;3.67;;
8464;SDS011;72380;52.680;13.606;2023-09-07T05:37:04;4.33;;;3.23;;
8464;SDS011;72380;52.680;13.606;2023-09-07T05:39:31;3.50;;;2.60;;
8464;SDS011;72380;52.680;13.606;2023-09-07T05:42:00;13.33;;;3.80;;
8464;SDS011;72380;52.680;13.606;2023-09-07T05:44:27;8.27;;;2.83;;
8464;SDS011;72380;52.680;13.606;2023-09-07T05:46:54;8.53;;;3.43;;
8464;SDS011;72380;52.680;13.606;2023-09-07T05:49:23;10.30;;;3.60;;
8464;SDS011;72380;52.680;13.606;2023-09-07T05:51:51;7.83;;;3.10;;
8464;SDS011;72380;52.680;13.606;2023-09-07T05:54:18;9.43;;;4.00;;
8464;SDS011;72380;52.680;13.606;2023-09-07T05:56:45;7.23;;;3.70;;
8464;SDS011;72380;52.680;13.606;2023-09-07T05:59:14;5.70;;;3.30;;
8464;SDS011;72380;52.680;13.606;2023-09-07T06:01:41;5.87;;;3.70;;
8464;SDS011;72380;52.680;13.606;2023-09-07T06:04:08;6.63;;;4.17;;
8464;SDS011;72380;52.680;13.606;2023-09-07T06:06:36;6.00;;;4.00;;
8464;SDS011;72380;52.680;13.606;2023-09-07T06:09:03;4.47;;;3.43;;
8464;SDS011;72380;52.680;13.606;2023-09-07T06:11:30;7.57;;;3.80;;
8464;SDS011;72380;52.680;13.606;2023-09-07T06:13:58;7.73;;;4.03;;
8464;SDS011;72380;52.680;13.606;2023-09-07T06:16:27;8.37;;;4.83;;
8464;SDS011;72380;52.680;13.606;2023-09-07T06:18:54;5.70;;;3.30;;
8464;SDS011;72380;52.680;13.606;2023-09-07T06:21:21;5.37;;;3.60;;
8464;SDS011;72380;52.680;13.606;2023-09-07T06:23:48;5.60;;;3.93;;
8464;SDS011;72380;52.680;13.606;2023-09-07T06:26:16;5.77;;;3.83;;
8464;SDS011;72380;52.680;13.606;2023-09-07T06:28:44;9.00;;;3.40;;
8464;SDS011;72380;52.680;13.606;2023-09-07T06:31:12;7.37;;;3.83;;
8464;SDS011;72380;52.680;13.606;2023-09-07T06:33:40;5.60;;;4.23;;
8464;SDS011;72380;52.680;13.606;2023-09-07T06:36:07;4.90;;;3.87;;
8464;SDS011;72380;52.680;13.606;2023-09-07T06:38:35;11.40;;;3.43;;
8464;SDS011;72380;52.680;13.606;2023-09-07T06:41:02;4.80;;;3.83;;
8464;SDS011;72380;52.680;13.606;2023-09-07T06:43:30;4.73;;;3.23;;
8464;SDS011;72380;52.680;13.606;2023-09-07T06:46:01;10.03;;;3.63;;
8464;SDS011;72380;52.680;13.606;2023-09-07T06:48:29;5.20;;;3.27;;
8464;SDS011;72380;52.680;13.606;2023-09-07T06:51:02;6.70;;;3.17;;
8464;SDS011;72380;52.680;13.606;2023-09-07T06:53:29;4.13;;;3.07;;
8464;SDS011;72380;52.680;13.606;2023-09-07T06:55:57;4.50;;;3.27;;
8464;SDS011;72380;52.680;13.606;2023-09-07T06:58:24;6.47;;;3.23;;
8464;SDS011;72380;52.680;13.606;2023-09-07T07:00:52;5.70;;;3.40;;
8464;SDS011;72380;52.680;13.606;2023-09-07T07:03:19;5.33;;;3.03;;
8464;SDS011;72380;52.680;13.606;2023-09-07T07:05:46;9.50;;;3.20;;
8464;SDS011;72380;52.680;13.606;2023-09-07T07:08:15;6.93;;;3.37;;
8464;SDS011;72380;52.680;13.606;2023-09-07T07:10:42;4.63;;;3.10;;
8464;SDS011;72380;52.680;13.606;2023-09-07T07:13:09;4.40;;;2.63;;
8464;SDS011;72380;52.680;13.606;2023-09-07T07:15:37;4.10;;;3.20;;
8464;SDS011;72380;52.680;13.606;2023-09-07T07:18:04;8.07;;;4.40;;
8464;SDS011;72380;52.680;13.606;2023-09-07T07:20:33;6.43;;;2.97;;
8464;SDS011;72380;52.680;13.606;2023-09-07T07:23:01;5.13;;;3.00;;
8464;SDS011;72380;52.680;13.606;2023-09-07T07:25:29;7.63;;;2.10;;
8464;SDS011;72380;52.680;13.606;2023-09-07T07:27:58;5.97;;;3.20;;
8464;SDS011;72380;52.680;13.606;2023-09-07T07:30:27;2.33;;;2.10;;
8464;SDS011;72380;52.680;13.606;2023-09-07T07:32:54;3.20;;;2.40;;
8464;SDS011;72380;52.680;13.606;2023-09-07T07:35:21;4.33;;;3.07;;
8464;SDS011;72380;52.680;13.606;2023-09-07T07:37:49;5.20;;;2.97;;
8464;SDS011;72380;52.680;13.606;2023-09-07T07:40:17;2.60;;;2.17;;
8464;SDS011;72380;52.680;13.606;2023-09-07T07:42:46;4.57;;;2.93;;
8464;SDS011;72380;52.680;13.606;2023-09-07T07:45:13;5.03;;;2.70;;
8464;SDS011;72380;52.680;13.606;2023-09-07T07:47:45;3.47;;;2.47;;
8464;SDS011;72380;52.680;13.606;2023-09-07T07:50:12;4.37;;;2.40;;
8464;SDS011;72380;52.680;13.606;2023-09-07T07:52:40;3.90;;;3.00;;
8464;SDS011;72380;52.680;13.606;2023-09-07T07:55:07;4.57;;;2.23;;
8464;SDS011;72380;52.680;13.606;2023-09-07T07:57:35;5.13;;;2.50;;
8464;SDS011;72380;52.680;13.606;2023-09-07T08:00:04;6.10;;;2.60;;
8464;SDS011;72380;52.680;13.606;2023-09-07T08:02:32;10.00;;;2.50;;
8464;SDS011;72380;52.680;13.606;2023-09-07T08:04:59;7.50;;;2.60;;
8464;SDS011;72380;52.680;13.606;2023-09-07T08:07:26;4.50;;;2.33;;
8464;SDS011;72380;52.680;13.606;2023-09-07T08:09:54;6.17;;;2.60;;
8464;SDS011;72380;52.680;13.606;2023-09-07T08:12:21;4.30;;;2.77;;
8464;SDS011;72380;52.680;13.606;2023-09-07T08:14:48;4.07;;;2.73;;
8464;SDS011;72380;52.680;13.606;2023-09-07T08:17:17;10.40;;;2.13;;
8464;SDS011;72380;52.680;13.606;2023-09-07T08:19:45;2.57;;;2.37;;
8464;SDS011;72380;52.680;13.606;2023-09-07T08:22:13;8.63;;;2.40;;
8464;SDS011;72380;52.680;13.606;2023-09-07T08:24:41;4.10;;;2.37;;
8464;SDS011;72380;52.680;13.606;2023-09-07T08:27:09;3.40;;;1.83;;
8464;SDS011;72380;52.680;13.606;2023-09-07T08:29:43;12.10;;;3.40;;
8464;SDS011;72380;52.680;13.606;2023-09-07T08:32:18;2.67;;;2.20;;
8464;SDS011;72380;52.680;13.606;2023-09-07T08:34:45;2.67;;;2.30;;
8464;SDS011;72380;52.680;13.606;2023-09-07T08:37:12;3.00;;;2.17;;
8464;SDS011;72380;52.680;13.606;2023-09-07T08:39:40;4.53;;;2.27;;
8464;SDS011;72380;52.680;13.606;2023-09-07T08:42:07;3.50;;;2.17;;
8464;SDS011;72380;52.680;13.606;2023-09-07T08:44:35;3.63;;;2.30;;
8464;SDS011;72380;52.680;13.606;2023-09-07T08:47:04;2.83;;;2.40;;
8464;SDS011;72380;52.680;13.606;2023-09-07T08:49:33;2.20;;;1.97;;
8464;SDS011;72380;52.680;13.606;2023-09-07T08:52:01;3.77;;;2.10;;
8464;SDS011;72380;52.680;13.606;2023-09-07T08:54:29;5.37;;;2.17;;
8464;SDS011;72380;52.680;13.606;2023-09-07T08:56:57;4.60;;;2.87;;
8464;SDS011;72380;52.680;13.606;2023-09-07T08:59:25;3.80;;;2.37;;
8464;SDS011;72380;52.680;13.606;2023-09-07T09:01:55;3.70;;;2.23;;
8464;SDS011;72380;52.680;13.606;2023-09-07T09:04:23;3.37;;;2.37;;
8464;SDS011;72380;52.680;13.606;2023-09-07T09:06:52;2.80;;;2.13;;
8464;SDS011;72380;52.680;13.606;2023-09-07T09:09:22;5.97;;;2.70;;
8464;SDS011;72380;52.680;13.606;2023-09-07T09:11:50;3.30;;;2.20;;
8464;SDS011;72380;52.680;13.606;2023-09-07T09:14:17;2.83;;;2.50;;
8464;SDS011;72380;52.680;13.606;2023-09-07T09:16:48;3.10;;;2.03;;
8464;SDS011;72380;52.680;13.606;2023-09-07T09:19:16;2.40;;;1.87;;
8464;SDS011;72380;52.680;13.606;2023-09-07T09:21:44;3.10;;;2.03;;
8464;SDS011;72380;52.680;13.606;2023-09-07T09:24:13;2.33;;;2.13;;
8464;SDS011;72380;52.680;13.606;2023-09-07T09:26:41;3.33;;;1.87;;
8464;SDS011;72380;52.680;13.606;2023-09-07T09:29:08;2.43;;;2.07;;
8464;SDS011;72380;52.680;13.606;2023-09-07T09:31:37;4.50;;;2.10;;
8464;SDS011;72380;52.680;13.606;2023-09-07T09:34:04;2.63;;;1.73;;
8464;SDS011;72380;52.680;13.606;2023-09-07T09:36:34;2.23;;;1.97;;
8464;SDS011;72380;52.680;13.606;2023-09-07T09:39:02;1.97;;;1.80;;
8464;SDS011;72380;52.680;13.606;2023-09-07T09:41:32;2.43;;;2.23;;
8464;SDS011;72380;52.680;13.606;2023-09-07T09:44:00;2.57;;;2.37;;
8464;SDS011;72380;52.680;13.606;2023-09-07T09:46:29;3.73;;;2.60;;
8464;SDS011;72380;52.680;13.606;2023-09-07T09:48:58;2.97;;;2.17;;
8464;SDS011;72380;52.680;13.606;2023-09-07T09:51:27;2.93;;;2.10;;
8464;SDS011;72380;52.680;13.606;2023-09-07T09:53:54;2.37;;;1.67;;
8464;SDS011;72380;52.680;13.606;2023-09-07T09:56:22;7.17;;;2.40;;
8464;SDS011;72380;52.680;13.606;2023-09-07T09:58:52;3.47;;;2.37;;
8464;SDS011;72380;52.680;13.606;2023-09-07T10:01:20;5.87;;;2.23;;
8464;SDS011;72380;52.680;13.606;2023-09-07T10:03:48;3.72;;;2.60;;
8464;SDS011;72380;52.680;13.606;2023-09-07T10:06:18;2.60;;;2.15;;
8464;SDS011;72380;52.680;13.606;2023-09-07T10:08:53;2.63;;;2.13;;
8464;SDS011;72380;52.680;13.606;2023-09-07T10:11:26;4.03;;;1.90;;
8464;SDS011;72380;52.680;13.606;2023-09-07T10:13:57;2.23;;;1.83;;
8464;SDS011;72380;52.680;13.606;2023-09-07T10:16:25;3.83;;;1.90;;
8464;SDS011;72380;52.680;13.606;2023-09-07T10:18:53;2.17;;;1.98;;
8464;SDS011;72380;52.680;13.606;2023-09-07T10:21:23;3.92;;;2.15;;
8464;SDS011;72380;52.680;13.606;2023-09-07T10:23:51;2.40;;;1.77;;
8464;SDS011;72380;52.680;13.606;2023-09-07T10:26:19;2.63;;;2.35;;
8464;SDS011;72380;52.680;13.606;2023-09-07T10:28:47;4.47;;;2.35;;
8464;SDS011;72380;52.680;13.606;2023-09-07T10:31:27;3.22;;;1.63;;
8464;SDS011;72380;52.680;13.606;2023-09-07T10:33:55;2.97;;;2.30;;
8464;SDS011;72380;52.680;13.606;2023-09-07T10:36:24;4.18;;;2.10;;
8464;SDS011;72380;52.680;13.606;2023-09-07T10:38:51;2.35;;;1.75;;
8464;SDS011;72380;52.680;13.606;2023-09-07T10:41:19;3.85;;;2.03;;
8464;SDS011;72380;52.680;13.606;2023-09-07T10:43:47;1.80;;;1.70;;
8464;SDS011;72380;52.680;13.606;2023-09-07T10:46:14;2.03;;;1.70;;
8464;SDS011;72380;52.680;13.606;2023-09-07T10:48:43;2.15;;;1.88;;
8464;SDS011;72380;52.680;13.606;2023-09-07T10:51:10;3.00;;;1.70;;
8464;SDS011;72380;52.680;13.606;2023-09-07T10:53:38;2.22;;;2.03;;
8464;SDS011;72380;52.680;13.606;2023-09-07T10:56:06;2.42;;;2.22;;
8464;SDS011;72380;52.680;13.606;2023-09-07T10:58:35;2.75;;;1.98;;
8464;SDS011;72380;52.680;13.606;2023-09-07T11:01:04;2.72;;;2.45;;
8464;SDS011;72380;52.680;13.606;2023-09-07T11:03:31;2.45;;;2.25;;
8464;SDS011;72380;52.680;13.606;2023-09-07T11:06:01;2.35;;;2.05;;
8464;SDS011;72380;52.680;13.606;2023-09-07T11:08:29;2.67;;;2.17;;
8464;SDS011;72380;52.680;13.606;2023-09-07T11:10:58;2.33;;;2.13;;
8464;SDS011;72380;52.680;13.606;2023-09-07T11:13:25;3.88;;;2.20;;
8464;SDS011;72380;52.680;13.606;2023-09-07T11:15:53;2.97;;;2.17;;
8464;SDS011;72380;52.680;13.606;2023-09-07T11:18:21;15.98;;;2.60;;
8464;SDS011;72380;52.680;13.606;2023-09-07T11:20:48;3.83;;;2.50;;
8464;SDS011;72380;52.680;13.606;2023-09-07T11:23:18;2.85;;;2.50;;
8464;SDS011;72380;52.680;13.606;2023-09-07T11:25:46;2.03;;;1.80;;
8464;SDS011;72380;52.680;13.606;2023-09-07T11:28:15;3.90;;;2.35;;
8464;SDS011;72380;52.680;13.606;2023-09-07T11:30:49;7.72;;;2.28;;
8464;SDS011;72380;52.680;13.606;2023-09-07T11:33:17;2.22;;;2.03;;
8464;SDS011;72380;52.680;13.606;2023-09-07T11:35:44;2.22;;;2.03;;
8464;SDS011;72380;52.680;13.606;2023-09-07T11:38:12;3.42;;;2.03;;
8464;SDS011;72380;52.680;13.606;2023-09-07T11:40:42;1.92;;;1.80;;
8464;SDS011;72380;52.680;13.606;2023-09-07T11:43:10;9.20;;;2.00;;
8464;SDS011;72380;52.680;13.606;2023-09-07T11:45:38;2.22;;;2.03;;
8464;SDS011;72380;52.680;13.606;2023-09-07T11:48:05;6.22;;;2.40;;
8464;SDS011;72380;52.680;13.606;2023-09-07T11:50:34;4.07;;;2.60;;
8464;SDS011;72380;52.680;13.606;2023-09-07T11:53:01;1.75;;;1.65;;
8464;SDS011;72380;52.680;13.606;2023-09-07T11:55:29;3.60;;;2.40;;
8464;SDS011;72380;52.680;13.606;2023-09-07T11:57:57;1.95;;;1.75;;
8464;SDS011;72380;52.680;13.606;2023-09-07T12:00:25;5.68;;;2.28;;
8464;SDS011;72380;52.680;13.606;2023-09-07T12:02:52;2.75;;;2.45;;
8464;SDS011;72380;52.680;13.606;2023-09-07T12:05:19;2.88;;;2.65;;
8464;SDS011;72380;52.680;13.606;2023-09-07T12:07:47;5.85;;;2.35;;
8464;SDS011;72380;52.680;13.606;2023-09-07T12:10:14;2.45;;;2.25;;
8464;SDS011;72380;52.680;13.606;2023-09-07T12:12:41;2.25;;;2.03;;
8464;SDS011;72380;52.680;13.606;2023-09-07T12:15:10;2.40;;;2.17;;
8464;SDS011;72380;52.680;13.606;2023-09-07T12:17:38;2.80;;;2.53;;
8464;SDS011;72380;52.680;13.606;2023-09-07T12:20:05;2.47;;;1.95;;
8464;SDS011;72380;52.680;13.606;2023-09-07T12:22:35;3.03;;;2.60;;
8464;SDS011;72380;52.680;13.606;2023-09-07T12:25:03;2.20;;;1.83;;
8464;SDS011;72380;52.680;13.606;2023-09-07T12:27:32;4.88;;;3.15;;
8464;SDS011;72380;52.680;13.606;2023-09-07T12:29:59;2.85;;;2.28;;
8464;SDS011;72380;52.680;13.606;2023-09-07T12:32:28;3.70;;;2.00;;
8464;SDS011;72380;52.680;13.606;2023-09-07T12:34:56;3.10;;;2.15;;
8464;SDS011;72380;52.680;13.606;2023-09-07T12:37:23;2.47;;;2.28;;
8464;SDS011;72380;52.680;13.606;2023-09-07T12:39:50;2.72;;;2.38;;
8464;SDS011;72380;52.680;13.606;2023-09-07T12:42:17;3.03;;;2.75;;
8464;SDS011;72380;52.680;13.606;2023-09-07T12:44:45;3.85;;;2.63;;
8464;SDS011;72380;52.680;13.606;2023-09-07T12:47:12;1.98;;;1.88;;
8464;SDS011;72380;52.680;13.606;2023-09-07T12:49:41;6.18;;;2.35;;
8464;SDS011;72380;52.680;13.606;2023-09-07T12:52:08;5.93;;;2.38;;
8464;SDS011;72380;52.680;13.606;2023-09-07T12:54:36;4.90;;;2.55;;
8464;SDS011;72380;52.680;13.606;2023-09-07T12:57:04;2.63;;;2.42;;
8464;SDS011;72380;52.680;13.606;2023-09-07T12:59:31;6.72;;;2.30;;
8464;SDS011;72380;52.680;13.606;2023-09-07T13:01:58;7.75;;;2.78;;
8464;SDS011;72380;52.680;13.606;2023-09-07T13:04:26;2.88;;;2.50;;
8464;SDS011;72380;52.680;13.606;2023-09-07T13:06:54;2.70;;;2.50;;
8464;SDS011;72380;52.680;13.606;2023-09-07T13:09:21;2.75;;;2.40;;
8464;SDS011;72380;52.680;13.606;2023-09-07T13:11:49;7.60;;;2.60;;
8464;SDS011;72380;52.680;13.606;2023-09-07T13:14:16;3.97;;;2.50;;
8464;SDS011;72380;52.680;13.606;2023-09-07T13:16:43;5.90;;;2.15;;
8464;SDS011;72380;52.680;13.606;2023-09-07T13:19:11;2.38;;;2.17;;
8464;SDS011;72380;52.680;13.606;2023-09-07T13:21:38;2.63;;;2.42;;
8464;SDS011;72380;52.680;13.606;2023-09-07T13:24:07;3.53;;;2.70;;
8464;SDS011;72380;52.680;13.606;2023-09-07T13:26:34;2.63;;;2.20;;
8464;SDS011;72380;52.680;13.606;2023-09-07T13:29:01;2.10;;;2.00;;
8464;SDS011;72380;52.680;13.606;2023-09-07T13:31:28;3.10;;;2.80;;
8464;SDS011;72380;52.680;13.606;2023-09-07T13:33:56;2.33;;;2.13;;
8464;SDS011;72380;52.680;13.606;2023-09-07T13:36:24;2.20;;;2.00;;
8464;SDS011;72380;52.680;13.606;2023-09-07T13:38:51;4.85;;;2.38;;
8464;SDS011;72380;52.680;13.606;2023-09-07T13:41:23;3.80;;;2.45;;
8464;SDS011;72380;52.680;13.606;2023-09-07T13:43:50;3.42;;;3.03;;
8464;SDS011;72380;52.680;13.606;2023-09-07T13:46:19;2.35;;;2.13;;
8464;SDS011;72380;52.680;13.606;2023-09-07T13:48:46;2.35;;;2.17;;
8464;SDS011;72380;52.680;13.606;2023-09-07T13:51:14;2.30;;;2.10;;
8464;SDS011;72380;52.680;13.606;2023-09-07T13:53:41;4.55;;;2.60;;
8464;SDS011;72380;52.680;13.606;2023-09-07T13:56:08;3.38;;;1.90;;
8464;SDS011;72380;52.680;13.606;2023-09-07T13:58:37;2.50;;;2.10;;
8464;SDS011;72380;52.680;13.606;2023-09-07T14:01:04;2.80;;;2.58;;
8464;SDS011;72380;52.680;13.606;2023-09-07T14:03:32;2.40;;;2.17;;
8464;SDS011;72380;52.680;13.606;2023-09-07T14:05:59;2.63;;;2.42;;
8464;SDS011;72380;52.680;13.606;2023-09-07T14:08:26;2.30;;;2.10;;
8464;SDS011;72380;52.680;13.606;2023-09-07T14:10:55;2.50;;;2.30;;
8464;SDS011;72380;52.680;13.606;2023-09-07T14:13:23;2.40;;;2.20;;
8464;SDS011;72380;52.680;13.606;2023-09-07T14:15:51;4.05;;;2.75;;
8464;SDS011;72380;52.680;13.606;2023-09-07T14:18:19;3.10;;;2.50;;
8464;SDS011;72380;52.680;13.606;2023-09-07T14:20:46;3.28;;;2.67;;
8464;SDS011;72380;52.680;13.606;2023-09-07T14:23:13;2.60;;;2.40;;
8464;SDS011;72380;52.680;13.606;2023-09-07T14:25:41;2.38;;;2.10;;
8464;SDS011;72380;52.680;13.606;2023-09-07T14:28:10;2.55;;;2.35;;
8464;SDS011;72380;52.680;13.606;2023-09-07T14:30:37;4.03;;;2.33;;
8464;SDS011;72380;52.680;13.606;2023-09-07T14:33:06;4.78;;;2.42;;
8464;SDS011;72380;52.680;13.606;2023-09-07T14:35:33;3.03;;;2.47;;
8464;SDS011;72380;52.680;13.606;2023-09-07T14:38:01;2.55;;;2.17;;
8464;SDS011;72380;52.680;13.606;2023-09-07T14:40:28;3.00;;;2.17;;
8464;SDS011;72380;52.680;13.606;2023-09-07T14:42:56;3.65;;;2.42;;
8464;SDS011;72380;52.680;13.606;2023-09-07T14:45:23;3.33;;;2.60;;
8464;SDS011;72380;52.680;13.606;2023-09-07T14:47:51;2.63;;;2.03;;
8464;SDS011;72380;52.680;13.606;2023-09-07T14:50:20;2.47;;;2.20;;
8464;SDS011;72380;52.680;13.606;2023-09-07T14:52:47;2.92;;;2.08;;